E/V Nautilus — J8B3605 — position and weather

sailwx.info

Track history (hours):
 
Tides and Currents Weather Stations Pressure Air Temp Water Temp Dewpoint Dewpoint Depression Visibility Wind Speed Wind Dir Waves Ship Positions

Oceanographic research ship E/V Nautilus (St Vincent and the Grenadines)

Ship's website: http://www.nautiluslive.org

Last reported at 2017-Sep-26 18:00 UTC. Time now 2017-Sep-26 18:13 UTC.
Position N 33°38' W 119°51'.

; draft 5 m.

Type: Other ship. MMSI: 376404000.

Date/timePositionNaut miles runAvg speedWind from/ knotsBaromVisibWave heightAir tempDewpointWater temp
2017-Sep-26 18:00N 33°38' W 119°51'1 2.4
2017-Sep-26 17:30N 33°39' W 119°50'3 5.8
2017-Sep-26 17:00N 33°39' W 119°54'1 1.7
2017-Sep-26 16:29N 33°39' W 119°53'1 1.6
2017-Sep-26 16:00N 33°39' W 119°54'2 3.2
2017-Sep-26 15:30N 33°40' W 119°52'3 5.8
2017-Sep-26 15:00N 33°39' W 119°55'5 9.2
2017-Sep-26 14:30N 33°41' W 119°50'510.1
2017-Sep-26 14:00N 33°39' W 119°56'1 1.7
2017-Sep-26 13:30N 33°40' W 119°55'4 8.1
2017-Sep-26 13:00N 33°41' W 119°50'510.2
2017-Sep-26 12:30N 33°39' W 119°56'1 2.9
2017-Sep-26 12:01N 33°39' W 119°58'2 3.1
2017-Sep-26 11:30N 33°40' W 119°56'3 5.1
2017-Sep-26 11:00N 33°38' W 119°59'4 8.2
2017-Sep-26 10:30N 33°40' W 119°54'3 5.3
2017-Sep-26 10:00N 33°41' W 119°51'5 9.5
2017-Sep-26 09:30N 33°40' W 119°57'1 1.6
2017-Sep-26 09:00N 33°40' W 119°57'5 9.8
2017-Sep-26 08:30N 33°41' W 119°52'2 4.0
2017-Sep-26 08:00N 33°41' W 119°54'5 9.5
2017-Sep-26 07:30N 33°39' W 119°60'4 8.1
2017-Sep-26 07:00N 33°41' W 119°55'3 6.3
2017-Sep-26 06:30N 33°42' W 119°52'5 9.2
2017-Sep-26 06:00N 33°41' W 119°57'2 3.2
2017-Sep-26 05:31N 33°40' W 119°59'5 9.7
2017-Sep-26 05:00N 33°42' W 119°53'0 0.9
2017-Sep-26 04:30N 33°42' W 119°54'5 9.4
2017-Sep-26 04:00N 33°40' W 119°59'2 3.2
2017-Sep-26 03:30N 33°41' W 119°57'510.0
2017-Sep-26 03:00N 33°43' W 119°52'4 7.3
2017-Sep-26 02:30N 33°42' W 119°56'5 9.5
2017-Sep-26 02:01N 33°40' W 120°01'5 9.7
2017-Sep-26 01:29N 33°42' W 119°55'3 7.3
2017-Sep-26 01:01N 33°44' W 119°52'5 9.8
2017-Sep-26 00:30N 33°42' W 119°57'3 5.4
2017-Sep-26 00:00N 33°41' W 120°00'5 9.6
2017-Sep-25 23:30N 33°43' W 119°55'4 7.1
2017-Sep-25 23:00N 33°43' W 119°51'5 8.7
2017-Sep-25 22:28N 33°38' W 119°49'4 9.2
2017-Sep-25 22:00N 33°34' W 119°47'3 5.0
2017-Sep-25 21:30N 33°37' W 119°47'4 7.7
2017-Sep-25 21:00N 33°40' W 119°49'510.1
2017-Sep-25 20:30N 33°45' W 119°52'2 4.7
2017-Sep-25 20:00N 33°47' W 119°53'5 9.7
2017-Sep-25 19:30N 33°43' W 119°50'5 9.6
2017-Sep-25 19:00N 33°39' W 119°47'5 9.4
2017-Sep-25 18:30N 33°35' W 119°44'3 5.8
2017-Sep-25 18:00N 33°37' W 119°45'4 8.6
2017-Sep-25 17:30N 33°41' W 119°48'4 8.5
2017-Sep-25 17:00N 33°44' W 119°52'510.3
2017-Sep-25 16:31N 33°42' W 119°58'3 5.8
2017-Sep-25 16:00N 33°41' W 120°01'5 9.4
2017-Sep-25 15:30N 33°43' W 119°56'4 8.4
2017-Sep-25 15:00N 33°45' W 119°51'5 9.8
2017-Sep-25 14:31N 33°43' W 119°57'5 9.9
2017-Sep-25 14:00N 33°41' W 120°02'4 8.5
2017-Sep-25 13:31N 33°43' W 119°58'5 9.7
2017-Sep-25 13:00N 33°45' W 119°52'3 6.4
2017-Sep-25 12:30N 33°44' W 119°56'5 9.9
2017-Sep-25 12:00N 33°42' W 120°01'2 5.0
2017-Sep-25 11:30N 33°43' W 119°59'5 9.9
2017-Sep-25 11:00N 33°45' W 119°53'2 4.1
2017-Sep-25 10:30N 33°44' W 119°55'5 9.2
2017-Sep-25 10:00N 33°42' W 120°01'4 7.1
2017-Sep-25 09:30N 33°41' W 120°05'5 9.5
2017-Sep-25 09:00N 33°43' W 119°59'510.2
2017-Sep-25 08:29N 33°45' W 119°54'2 3.2
2017-Sep-25 08:00N 33°45' W 119°55'4 8.8
2017-Sep-25 07:30N 33°43' W 120°00'0 0.8
2017-Sep-25 07:00N 33°43' W 120°01'510.4
2017-Sep-25 06:29N 33°45' W 119°54'0 0.7
2017-Sep-25 06:00N 33°45' W 119°55'4 8.5
2017-Sep-25 05:29N 33°44' W 119°60'2 4.8
2017-Sep-25 05:00N 33°43' W 120°02'2 3.0
2017-Sep-25 04:28N 33°44' W 120°01'0 0.6
2017-Sep-25 03:59N 33°44' W 120°01'2 3.2
2017-Sep-25 03:30N 33°44' W 120°02'3 6.0
2017-Sep-25 03:00N 33°45' W 119°59'3 4.8
2017-Sep-25 02:28N 33°45' W 120°02'1 2.2
2017-Sep-25 02:00N 33°45' W 120°01'0 0.6
2017-Sep-25 01:31N 33°46' W 120°01'2 3.1
2017-Sep-25 01:00N 33°45' W 120°03'3 5.5
2017-Sep-25 00:30N 33°46' W 120°00'3 5.4
2017-Sep-24 23:59N 33°46' W 120°03'2 4.1
2017-Sep-24 23:30N 33°47' W 120°01'3 5.9
2017-Sep-24 23:00N 33°44' W 120°03'3 6.0
2017-Sep-24 22:31N 33°44' W 119°60'4 7.7
2017-Sep-24 22:00N 33°45' W 119°55'5 9.6
2017-Sep-24 21:30N 33°40' W 119°53'3 5.0
2017-Sep-24 21:00N 33°38' W 119°53'510.3
2017-Sep-24 20:30N 33°39' W 119°59'5 9.9
2017-Sep-24 19:59N 33°43' W 120°03'2 5.1
2017-Sep-24 19:31N 33°45' W 120°04'510.3
2017-Sep-24 19:00N 33°40' W 120°02'4 8.5
2017-Sep-24 18:30N 33°38' W 119°57'4 7.6
2017-Sep-24 18:00N 33°38' W 119°53'4 7.1
2017-Sep-24 17:30N 33°40' W 119°50'4 7.8
2017-Sep-24 17:00N 33°44' W 119°50'4 7.9
2017-Sep-24 16:31N 33°48' W 119°52'4 8.3
2017-Sep-24 16:00N 33°51' W 119°54'2 4.7
2017-Sep-24 15:31N 33°54' W 119°55'4 8.4
2017-Sep-24 15:00N 33°50' W 119°53'4 8.4
2017-Sep-24 14:29N 33°46' W 119°50'5 9.1
2017-Sep-24 13:58N 33°41' W 119°50'4 8.6
2017-Sep-24 13:30N 33°38' W 119°51'4 7.6
2017-Sep-24 13:00N 33°37' W 119°56'4 7.7
2017-Sep-24 12:31N 33°39' W 120°00'4 8.2
2017-Sep-24 11:59N 33°42' W 120°03'4 8.1
2017-Sep-24 11:29N 33°46' W 120°05'3 5.8
2017-Sep-24 10:59N 33°43' W 120°04'4 8.4
2017-Sep-24 10:30N 33°39' W 120°02'4 8.4
2017-Sep-24 10:01N 33°36' W 120°01'4 7.6
2017-Sep-24 09:30N 33°32' W 119°59'4 8.8
2017-Sep-24 09:00N 33°28' W 119°59'4 8.9
2017-Sep-24 08:31N 33°23' W 119°58'4 8.7
2017-Sep-24 08:00N 33°19' W 119°58'5 7.9
2017-Sep-24 07:25N 33°18' W 119°53'3 8.2
2017-Sep-24 07:00N 33°17' W 119°49'3 6.9
2017-Sep-24 06:30N 33°15' W 119°52'1 1.7
2017-Sep-24 05:55N 33°15' W 119°50'1 3.1
2017-Sep-24 05:30N 33°14' W 119°49'3 5.3
2017-Sep-24 04:59N 33°16' W 119°51'1 3.1
2017-Sep-24 04:31N 33°15' W 119°50'1 2.0
2017-Sep-24 04:00N 33°15' W 119°49'4 8.1
2017-Sep-24 03:30N 33°17' W 119°52'4 7.8
2017-Sep-24 03:00N 33°15' W 119°49'3 4.2
2017-Sep-24 02:25N 33°17' W 119°51'1 1.3
2017-Sep-24 02:00N 33°16' W 119°50'2 3.9
2017-Sep-24 01:30N 33°15' W 119°48'3 5.1
2017-Sep-24 01:00N 33°17' W 119°51'4 7.6
2017-Sep-24 00:31N 33°14' W 119°48'3 6.8
2017-Sep-24 00:00N 33°16' W 119°51'2 3.4
2017-Sep-23 23:30N 33°17' W 119°50'3 6.7
2017-Sep-23 23:00N 33°14' W 119°49'4 7.2
2017-Sep-23 22:29N 33°16' W 119°52'2 4.1
2017-Sep-23 22:00N 33°17' W 119°51'4 7.6
2017-Sep-23 21:31N 33°14' W 119°48'3 5.4
2017-Sep-23 20:53N 33°14' W 119°52'3 7.9
2017-Sep-23 20:28N 33°17' W 119°53'3 6.5
2017-Sep-23 20:00N 33°17' W 119°50'49 1.2
2017-Sep-22 02:00N 33°47' W 119°03'5 9.5
2017-Sep-22 01:30N 33°50' W 119°08'5 9.6
2017-Sep-22 01:00N 33°52' W 119°13'6 9.9
2017-Sep-22 00:23N 33°55' W 119°19'410.5
2017-Sep-21 23:59N 33°58' W 119°24'511.0
2017-Sep-21 23:29N 34°01' W 119°29'4 9.0
2017-Sep-21 23:00N 34°04' W 119°33'4 7.5
2017-Sep-21 22:26N 34°03' W 119°37'1 2.3
2017-Sep-21 21:59N 34°03' W 119°37'4 6.0
2017-Sep-21 21:21N 34°04' W 119°32'2 4.3
2017-Sep-21 21:00N 34°03' W 119°31'4 7.7
2017-Sep-21 20:30N 34°04' W 119°35'5 7.4
2017-Sep-21 19:49N 34°02' W 119°41'3 8.5
2017-Sep-21 19:30N 34°03' W 119°43'610.5
2017-Sep-21 18:57N 34°04' W 119°50'4 8.2
2017-Sep-21 18:28N 34°05' W 119°55'6 9.4
2017-Sep-21 17:52N 34°04' W 119°48'3 9.2
2017-Sep-21 17:30N 34°04' W 119°44'5 9.1
2017-Sep-21 17:00N 34°02' W 119°39'4 8.5
2017-Sep-21 16:30N 34°04' W 119°35'4 7.0
2017-Sep-21 15:57N 34°03' W 119°30'2 5.0
2017-Sep-21 15:29N 34°05' W 119°31'4 8.0
2017-Sep-21 14:58N 34°06' W 119°36'4 8.3
2017-Sep-21 14:27N 34°06' W 119°41'4 8.6
2017-Sep-21 13:57N 34°06' W 119°47'5 9.2
2017-Sep-21 13:25N 34°06' W 119°52'4 9.0
2017-Sep-21 13:01N 34°06' W 119°57'3 5.6
2017-Sep-21 12:29N 34°04' W 119°58'4 8.4
2017-Sep-21 12:00N 33°60' W 119°56'4 9.1
2017-Sep-21 11:30N 33°56' W 119°55'5 8.6
2017-Sep-21 10:58N 33°51' W 119°52'4 8.2
2017-Sep-21 10:31N 33°48' W 119°50'4 7.1
2017-Sep-21 10:00N 33°45' W 119°48'4 7.9
2017-Sep-21 09:30N 33°48' W 119°51'4 7.6
2017-Sep-21 09:00N 33°51' W 119°53'0 0.7
2017-Sep-21 08:29N 33°52' W 119°53'4 8.1
2017-Sep-21 08:01N 33°48' W 119°51'4 8.1
2017-Sep-21 07:30N 33°45' W 119°49'5 9.3
2017-Sep-21 07:00N 33°46' W 119°54'5 9.5
2017-Sep-21 06:30N 33°47' W 119°60'4 8.3
2017-Sep-21 06:01N 33°46' W 120°04'1 1.2
2017-Sep-21 05:30N 33°46' W 120°05'4 8.6
2017-Sep-21 05:01N 33°47' W 120°00'3 6.6
2017-Sep-21 04:29N 33°46' W 120°04'0 0.5
2017-Sep-21 04:00N 33°47' W 120°05'4 7.3
2017-Sep-21 03:30N 33°48' W 120°01'5 8.0
2017-Sep-21 02:50N 33°46' W 120°07'3 8.9
2017-Sep-21 02:30N 33°47' W 120°03'0 0.9
2017-Sep-21 01:58N 33°48' W 120°03'2 4.9
2017-Sep-21 01:29N 33°47' W 120°06'4 8.6
2017-Sep-21 01:01N 33°49' W 120°01'5 7.7
2017-Sep-21 00:25N 33°47' W 120°06'3 6.9
2017-Sep-20 23:59N 33°48' W 120°03'1 1.2
2017-Sep-20 23:30N 33°48' W 120°04'1 2.2
2017-Sep-20 22:59N 33°48' W 120°05'2 4.2
2017-Sep-20 22:27N 33°49' W 120°03'3 7.5
2017-Sep-20 21:59N 33°48' W 120°07'3 5.0
2017-Sep-20 21:28N 33°49' W 120°04'0 1.0
2017-Sep-20 21:00N 33°49' W 120°04'4 7.4
2017-Sep-20 20:30N 33°48' W 120°08'4 7.9
2017-Sep-20 20:00N 33°50' W 120°03'2 3.3
2017-Sep-20 19:28N 33°49' W 120°05'1 0.9
2017-Sep-20 18:45N 33°50' W 120°05'1 2.7
2017-Sep-20 18:23N 33°50' W 120°06'4 4.9
2017-Sep-20 17:38N 33°47' W 120°07'2 9.6
2017-Sep-20 17:29N 33°46' W 120°07'1 1.9
2017-Sep-20 16:59N 33°46' W 120°06'6 7.0
2017-Sep-20 16:07N 33°53' W 120°07'311.0
2017-Sep-20 15:51N 33°53' W 120°03'410.9
2017-Sep-20 15:30N 33°53' W 119°59'510.4
2017-Sep-20 15:00N 33°54' W 119°53'4 4.1
2017-Sep-20 14:00N 33°50' W 119°51'7 9.6
2017-Sep-20 13:17N 33°44' W 119°56'2 8.5
2017-Sep-20 13:00N 33°45' W 119°58'5 9.5
2017-Sep-20 12:30N 33°46' W 120°04'5 9.9
2017-Sep-20 12:00N 33°46' W 120°10'5 9.6
2017-Sep-20 11:30N 33°47' W 120°16'5 9.0
2017-Sep-20 10:59N 33°48' W 120°21'5 9.5
2017-Sep-20 10:30N 33°50' W 120°26'5 9.9
2017-Sep-20 10:00N 33°52' W 120°31'510.0
2017-Sep-20 09:29N 33°55' W 120°37'510.1
2017-Sep-20 09:01N 33°57' W 120°42'510.0
2017-Sep-20 08:30N 33°60' W 120°47'510.1
2017-Sep-20 08:01N 34°02' W 120°52'510.2
2017-Sep-20 07:30N 34°05' W 120°57'510.1
2017-Sep-20 07:00N 34°08' W 121°03'510.0
2017-Sep-20 06:31N 34°10' W 121°08'5 9.9
2017-Sep-20 06:00N 34°13' W 121°13'5 9.9
2017-Sep-20 05:31N 34°16' W 121°18'5 9.9
2017-Sep-20 05:00N 34°20' W 121°21'5 9.3
2017-Sep-20 04:31N 34°23' W 121°25'5 9.1
2017-Sep-20 04:01N 34°27' W 121°28'5 9.6
2017-Sep-20 03:31N 34°31' W 121°32'5 9.8
2017-Sep-20 03:00N 34°35' W 121°36'5 9.6
2017-Sep-20 02:30N 34°38' W 121°40'5 9.6
2017-Sep-20 02:00N 34°42' W 121°43'5 9.4
2017-Sep-20 01:30N 34°46' W 121°46'56 9.9
2017-Sep-19 19:50N 35°35' W 122°20'410.4
2017-Sep-19 19:30N 35°38' W 122°22'15810.0
2017-Sep-19 03:43N 37°55' W 123°59'2 9.8
2017-Sep-19 03:30N 37°57' W 124°00'5 9.8
2017-Sep-19 02:59N 38°02' W 124°03'10 9.9
2017-Sep-19 01:57N 38°11' W 124°10'410.1
2017-Sep-19 01:30N 38°14' W 124°13'  
Track history (hours):
 
Tides and Currents Weather Stations Pressure Air Temp Water Temp Dewpoint Dewpoint Depression Visibility Wind Speed Wind Dir Waves Ship Positions

Oceanographic research ship E/V Nautilus (St Vincent and the Grenadines)

Ship's website: http://www.nautiluslive.org

Last reported at 2017-Sep-26 18:00 UTC. Time now 2017-Sep-26 18:13 UTC.
Position N 33°38' W 119°51'.

; draft 5 m.

Type: Other ship. MMSI: 376404000.

Date/timePositionNaut miles runAvg speedWind from/ knotsBaromVisibWave heightAir tempDewpointWater temp
2017-Sep-26 18:00N 33°38' W 119°51'1 2.4
2017-Sep-26 17:30N 33°39' W 119°50'3 5.8
2017-Sep-26 17:00N 33°39' W 119°54'1 1.7
2017-Sep-26 16:29N 33°39' W 119°53'1 1.6
2017-Sep-26 16:00N 33°39' W 119°54'2 3.2
2017-Sep-26 15:30N 33°40' W 119°52'3 5.8
2017-Sep-26 15:00N 33°39' W 119°55'5 9.2
2017-Sep-26 14:30N 33°41' W 119°50'510.1
2017-Sep-26 14:00N 33°39' W 119°56'1 1.7
2017-Sep-26 13:30N 33°40' W 119°55'4 8.1
2017-Sep-26 13:00N 33°41' W 119°50'510.2
2017-Sep-26 12:30N 33°39' W 119°56'1 2.9
2017-Sep-26 12:01N 33°39' W 119°58'2 3.1
2017-Sep-26 11:30N 33°40' W 119°56'3 5.1
2017-Sep-26 11:00N 33°38' W 119°59'4 8.2
2017-Sep-26 10:30N 33°40' W 119°54'3 5.3
2017-Sep-26 10:00N 33°41' W 119°51'5 9.5
2017-Sep-26 09:30N 33°40' W 119°57'1 1.6
2017-Sep-26 09:00N 33°40' W 119°57'5 9.8
2017-Sep-26 08:30N 33°41' W 119°52'2 4.0
2017-Sep-26 08:00N 33°41' W 119°54'5 9.5
2017-Sep-26 07:30N 33°39' W 119°60'4 8.1
2017-Sep-26 07:00N 33°41' W 119°55'3 6.3
2017-Sep-26 06:30N 33°42' W 119°52'5 9.2
2017-Sep-26 06:00N 33°41' W 119°57'2 3.2
2017-Sep-26 05:31N 33°40' W 119°59'5 9.7
2017-Sep-26 05:00N 33°42' W 119°53'0 0.9
2017-Sep-26 04:30N 33°42' W 119°54'5 9.4
2017-Sep-26 04:00N 33°40' W 119°59'2 3.2
2017-Sep-26 03:30N 33°41' W 119°57'510.0
2017-Sep-26 03:00N 33°43' W 119°52'4 7.3
2017-Sep-26 02:30N 33°42' W 119°56'5 9.5
2017-Sep-26 02:01N 33°40' W 120°01'5 9.7
2017-Sep-26 01:29N 33°42' W 119°55'3 7.3
2017-Sep-26 01:01N 33°44' W 119°52'5 9.8
2017-Sep-26 00:30N 33°42' W 119°57'3 5.4
2017-Sep-26 00:00N 33°41' W 120°00'5 9.6
2017-Sep-25 23:30N 33°43' W 119°55'4 7.1
2017-Sep-25 23:00N 33°43' W 119°51'5 8.7
2017-Sep-25 22:28N 33°38' W 119°49'4 9.2
2017-Sep-25 22:00N 33°34' W 119°47'3 5.0
2017-Sep-25 21:30N 33°37' W 119°47'4 7.7
2017-Sep-25 21:00N 33°40' W 119°49'510.1
2017-Sep-25 20:30N 33°45' W 119°52'2 4.7
2017-Sep-25 20:00N 33°47' W 119°53'5 9.7
2017-Sep-25 19:30N 33°43' W 119°50'5 9.6
2017-Sep-25 19:00N 33°39' W 119°47'5 9.4
2017-Sep-25 18:30N 33°35' W 119°44'3 5.8
2017-Sep-25 18:00N 33°37' W 119°45'4 8.6
2017-Sep-25 17:30N 33°41' W 119°48'4 8.5
2017-Sep-25 17:00N 33°44' W 119°52'510.3
2017-Sep-25 16:31N 33°42' W 119°58'3 5.8
2017-Sep-25 16:00N 33°41' W 120°01'5 9.4
2017-Sep-25 15:30N 33°43' W 119°56'4 8.4
2017-Sep-25 15:00N 33°45' W 119°51'5 9.8
2017-Sep-25 14:31N 33°43' W 119°57'5 9.9
2017-Sep-25 14:00N 33°41' W 120°02'4 8.5
2017-Sep-25 13:31N 33°43' W 119°58'5 9.7
2017-Sep-25 13:00N 33°45' W 119°52'3 6.4
2017-Sep-25 12:30N 33°44' W 119°56'5 9.9
2017-Sep-25 12:00N 33°42' W 120°01'2 5.0
2017-Sep-25 11:30N 33°43' W 119°59'5 9.9
2017-Sep-25 11:00N 33°45' W 119°53'2 4.1
2017-Sep-25 10:30N 33°44' W 119°55'5 9.2
2017-Sep-25 10:00N 33°42' W 120°01'4 7.1
2017-Sep-25 09:30N 33°41' W 120°05'5 9.5
2017-Sep-25 09:00N 33°43' W 119°59'510.2
2017-Sep-25 08:29N 33°45' W 119°54'2 3.2
2017-Sep-25 08:00N 33°45' W 119°55'4 8.8
2017-Sep-25 07:30N 33°43' W 120°00'0 0.8
2017-Sep-25 07:00N 33°43' W 120°01'510.4
2017-Sep-25 06:29N 33°45' W 119°54'0 0.7
2017-Sep-25 06:00N 33°45' W 119°55'4 8.5
2017-Sep-25 05:29N 33°44' W 119°60'2 4.8
2017-Sep-25 05:00N 33°43' W 120°02'2 3.0
2017-Sep-25 04:28N 33°44' W 120°01'0 0.6
2017-Sep-25 03:59N 33°44' W 120°01'2 3.2
2017-Sep-25 03:30N 33°44' W 120°02'3 6.0
2017-Sep-25 03:00N 33°45' W 119°59'3 4.8
2017-Sep-25 02:28N 33°45' W 120°02'1 2.2
2017-Sep-25 02:00N 33°45' W 120°01'0 0.6
2017-Sep-25 01:31N 33°46' W 120°01'2 3.1
2017-Sep-25 01:00N 33°45' W 120°03'3 5.5
2017-Sep-25 00:30N 33°46' W 120°00'3 5.4
2017-Sep-24 23:59N 33°46' W 120°03'2 4.1
2017-Sep-24 23:30N 33°47' W 120°01'3 5.9
2017-Sep-24 23:00N 33°44' W 120°03'3 6.0
2017-Sep-24 22:31N 33°44' W 119°60'4 7.7
2017-Sep-24 22:00N 33°45' W 119°55'5 9.6
2017-Sep-24 21:30N 33°40' W 119°53'3 5.0
2017-Sep-24 21:00N 33°38' W 119°53'510.3
2017-Sep-24 20:30N 33°39' W 119°59'5 9.9
2017-Sep-24 19:59N 33°43' W 120°03'2 5.1
2017-Sep-24 19:31N 33°45' W 120°04'510.3
2017-Sep-24 19:00N 33°40' W 120°02'4 8.5
2017-Sep-24 18:30N 33°38' W 119°57'4 7.6
2017-Sep-24 18:00N 33°38' W 119°53'4 7.1
2017-Sep-24 17:30N 33°40' W 119°50'4 7.8
2017-Sep-24 17:00N 33°44' W 119°50'4 7.9
2017-Sep-24 16:31N 33°48' W 119°52'4 8.3
2017-Sep-24 16:00N 33°51' W 119°54'2 4.7
2017-Sep-24 15:31N 33°54' W 119°55'4 8.4
2017-Sep-24 15:00N 33°50' W 119°53'4 8.4
2017-Sep-24 14:29N 33°46' W 119°50'5 9.1
2017-Sep-24 13:58N 33°41' W 119°50'4 8.6
2017-Sep-24 13:30N 33°38' W 119°51'4 7.6
2017-Sep-24 13:00N 33°37' W 119°56'4 7.7
2017-Sep-24 12:31N 33°39' W 120°00'4 8.2
2017-Sep-24 11:59N 33°42' W 120°03'4 8.1
2017-Sep-24 11:29N 33°46' W 120°05'3 5.8
2017-Sep-24 10:59N 33°43' W 120°04'4 8.4
2017-Sep-24 10:30N 33°39' W 120°02'4 8.4
2017-Sep-24 10:01N 33°36' W 120°01'4 7.6
2017-Sep-24 09:30N 33°32' W 119°59'4 8.8
2017-Sep-24 09:00N 33°28' W 119°59'4 8.9
2017-Sep-24 08:31N 33°23' W 119°58'4 8.7
2017-Sep-24 08:00N 33°19' W 119°58'5 7.9
2017-Sep-24 07:25N 33°18' W 119°53'3 8.2
2017-Sep-24 07:00N 33°17' W 119°49'3 6.9
2017-Sep-24 06:30N 33°15' W 119°52'1 1.7
2017-Sep-24 05:55N 33°15' W 119°50'1 3.1
2017-Sep-24 05:30N 33°14' W 119°49'3 5.3
2017-Sep-24 04:59N 33°16' W 119°51'1 3.1
2017-Sep-24 04:31N 33°15' W 119°50'1 2.0
2017-Sep-24 04:00N 33°15' W 119°49'4 8.1
2017-Sep-24 03:30N 33°17' W 119°52'4 7.8
2017-Sep-24 03:00N 33°15' W 119°49'3 4.2
2017-Sep-24 02:25N 33°17' W 119°51'1 1.3
2017-Sep-24 02:00N 33°16' W 119°50'2 3.9
2017-Sep-24 01:30N 33°15' W 119°48'3 5.1
2017-Sep-24 01:00N 33°17' W 119°51'4 7.6
2017-Sep-24 00:31N 33°14' W 119°48'3 6.8
2017-Sep-24 00:00N 33°16' W 119°51'2 3.4
2017-Sep-23 23:30N 33°17' W 119°50'3 6.7
2017-Sep-23 23:00N 33°14' W 119°49'4 7.2
2017-Sep-23 22:29N 33°16' W 119°52'2 4.1
2017-Sep-23 22:00N 33°17' W 119°51'4 7.6
2017-Sep-23 21:31N 33°14' W 119°48'3 5.4
2017-Sep-23 20:53N 33°14' W 119°52'3 7.9
2017-Sep-23 20:28N 33°17' W 119°53'3 6.5
2017-Sep-23 20:00N 33°17' W 119°50'49 1.2
2017-Sep-22 02:00N 33°47' W 119°03'5 9.5
2017-Sep-22 01:30N 33°50' W 119°08'5 9.6
2017-Sep-22 01:00N 33°52' W 119°13'6 9.9
2017-Sep-22 00:23N 33°55' W 119°19'410.5
2017-Sep-21 23:59N 33°58' W 119°24'511.0
2017-Sep-21 23:29N 34°01' W 119°29'4 9.0
2017-Sep-21 23:00N 34°04' W 119°33'4 7.5
2017-Sep-21 22:26N 34°03' W 119°37'1 2.3
2017-Sep-21 21:59N 34°03' W 119°37'4 6.0
2017-Sep-21 21:21N 34°04' W 119°32'2 4.3
2017-Sep-21 21:00N 34°03' W 119°31'4 7.7
2017-Sep-21 20:30N 34°04' W 119°35'5 7.4
2017-Sep-21 19:49N 34°02' W 119°41'3 8.5
2017-Sep-21 19:30N 34°03' W 119°43'610.5
2017-Sep-21 18:57N 34°04' W 119°50'4 8.2
2017-Sep-21 18:28N 34°05' W 119°55'6 9.4
2017-Sep-21 17:52N 34°04' W 119°48'3 9.2
2017-Sep-21 17:30N 34°04' W 119°44'5 9.1
2017-Sep-21 17:00N 34°02' W 119°39'4 8.5
2017-Sep-21 16:30N 34°04' W 119°35'4 7.0
2017-Sep-21 15:57N 34°03' W 119°30'2 5.0
2017-Sep-21 15:29N 34°05' W 119°31'4 8.0
2017-Sep-21 14:58N 34°06' W 119°36'4 8.3
2017-Sep-21 14:27N 34°06' W 119°41'4 8.6
2017-Sep-21 13:57N 34°06' W 119°47'5 9.2
2017-Sep-21 13:25N 34°06' W 119°52'4 9.0
2017-Sep-21 13:01N 34°06' W 119°57'3 5.6
2017-Sep-21 12:29N 34°04' W 119°58'4 8.4
2017-Sep-21 12:00N 33°60' W 119°56'4 9.1
2017-Sep-21 11:30N 33°56' W 119°55'5 8.6
2017-Sep-21 10:58N 33°51' W 119°52'4 8.2
2017-Sep-21 10:31N 33°48' W 119°50'4 7.1
2017-Sep-21 10:00N 33°45' W 119°48'4 7.9
2017-Sep-21 09:30N 33°48' W 119°51'4 7.6
2017-Sep-21 09:00N 33°51' W 119°53'0 0.7
2017-Sep-21 08:29N 33°52' W 119°53'4 8.1
2017-Sep-21 08:01N 33°48' W 119°51'4 8.1
2017-Sep-21 07:30N 33°45' W 119°49'5 9.3
2017-Sep-21 07:00N 33°46' W 119°54'5 9.5
2017-Sep-21 06:30N 33°47' W 119°60'4 8.3
2017-Sep-21 06:01N 33°46' W 120°04'1 1.2
2017-Sep-21 05:30N 33°46' W 120°05'4 8.6
2017-Sep-21 05:01N 33°47' W 120°00'3 6.6
2017-Sep-21 04:29N 33°46' W 120°04'0 0.5
2017-Sep-21 04:00N 33°47' W 120°05'4 7.3
2017-Sep-21 03:30N 33°48' W 120°01'5 8.0
2017-Sep-21 02:50N 33°46' W 120°07'3 8.9
2017-Sep-21 02:30N 33°47' W 120°03'0 0.9
2017-Sep-21 01:58N 33°48' W 120°03'2 4.9
2017-Sep-21 01:29N 33°47' W 120°06'4 8.6
2017-Sep-21 01:01N 33°49' W 120°01'5 7.7
2017-Sep-21 00:25N 33°47' W 120°06'3 6.9
2017-Sep-20 23:59N 33°48' W 120°03'1 1.2
2017-Sep-20 23:30N 33°48' W 120°04'1 2.2
2017-Sep-20 22:59N 33°48' W 120°05'2 4.2
2017-Sep-20 22:27N 33°49' W 120°03'3 7.5
2017-Sep-20 21:59N 33°48' W 120°07'3 5.0
2017-Sep-20 21:28N 33°49' W 120°04'0 1.0
2017-Sep-20 21:00N 33°49' W 120°04'4 7.4
2017-Sep-20 20:30N 33°48' W 120°08'4 7.9
2017-Sep-20 20:00N 33°50' W 120°03'2 3.3
2017-Sep-20 19:28N 33°49' W 120°05'1 0.9
2017-Sep-20 18:45N 33°50' W 120°05'1 2.7
2017-Sep-20 18:23N 33°50' W 120°06'4 4.9
2017-Sep-20 17:38N 33°47' W 120°07'2 9.6
2017-Sep-20 17:29N 33°46' W 120°07'1 1.9
2017-Sep-20 16:59N 33°46' W 120°06'6 7.0
2017-Sep-20 16:07N 33°53' W 120°07'311.0
2017-Sep-20 15:51N 33°53' W 120°03'410.9
2017-Sep-20 15:30N 33°53' W 119°59'510.4
2017-Sep-20 15:00N 33°54' W 119°53'4 4.1
2017-Sep-20 14:00N 33°50' W 119°51'7 9.6
2017-Sep-20 13:17N 33°44' W 119°56'2 8.5
2017-Sep-20 13:00N 33°45' W 119°58'5 9.5
2017-Sep-20 12:30N 33°46' W 120°04'5 9.9
2017-Sep-20 12:00N 33°46' W 120°10'5 9.6
2017-Sep-20 11:30N 33°47' W 120°16'5 9.0
2017-Sep-20 10:59N 33°48' W 120°21'5 9.5
2017-Sep-20 10:30N 33°50' W 120°26'5 9.9
2017-Sep-20 10:00N 33°52' W 120°31'510.0
2017-Sep-20 09:29N 33°55' W 120°37'510.1
2017-Sep-20 09:01N 33°57' W 120°42'510.0
2017-Sep-20 08:30N 33°60' W 120°47'510.1
2017-Sep-20 08:01N 34°02' W 120°52'510.2
2017-Sep-20 07:30N 34°05' W 120°57'510.1
2017-Sep-20 07:00N 34°08' W 121°03'510.0
2017-Sep-20 06:31N 34°10' W 121°08'5 9.9
2017-Sep-20 06:00N 34°13' W 121°13'5 9.9
2017-Sep-20 05:31N 34°16' W 121°18'5 9.9
2017-Sep-20 05:00N 34°20' W 121°21'5 9.3
2017-Sep-20 04:31N 34°23' W 121°25'5 9.1
2017-Sep-20 04:01N 34°27' W 121°28'5 9.6
2017-Sep-20 03:31N 34°31' W 121°32'5 9.8
2017-Sep-20 03:00N 34°35' W 121°36'5 9.6
2017-Sep-20 02:30N 34°38' W 121°40'5 9.6
2017-Sep-20 02:00N 34°42' W 121°43'5 9.4
2017-Sep-20 01:30N 34°46' W 121°46'56 9.9
2017-Sep-19 19:50N 35°35' W 122°20'410.4
2017-Sep-19 19:30N 35°38' W 122°22'15810.0
2017-Sep-19 03:43N 37°55' W 123°59'2 9.8
2017-Sep-19 03:30N 37°57' W 124°00'5 9.8
2017-Sep-19 02:59N 38°02' W 124°03'10 9.9
2017-Sep-19 01:57N 38°11' W 124°10'410.1
2017-Sep-19 01:30N 38°14' W 124°13'  

Dump ship's entire track history